Time;durP1;ratioP1;P1;durP2;ratioP2;P2;SDS_P1;SDS_P2;PMS_P1;PMS_P2;Temp;Humidity;BMP_temperature;BMP_pressure;BME280_temperature;BME280_humidity;BME280_pressure;Samples;Min_cycle;Max_cycle;Signal;HPM_P1;HPM_P2
2022/05/21 00:01:50;;;;;;;5.62;4.75;;;;;;;18.43;47.11;99038.51;1679573;84;21001;-76
2022/05/21 00:04:16;;;;;;;7.15;4.12;;;;;;;18.44;47.27;99040.67;1670388;84;21084;-73
2022/05/21 00:06:43;;;;;;;7.17;4.80;;;;;;;18.44;47.41;99044.77;1678930;85;21026;-74
2022/05/21 00:09:10;;;;;;;8.63;4.75;;;;;;;18.44;47.45;99034.67;1649978;87;21190;-74
2022/05/21 00:11:37;;;;;;;8.93;5.20;;;;;;;18.48;47.48;99037.00;1678825;85;21142;-73
2022/05/21 00:14:03;;;;;;;6.70;4.65;;;;;;;18.49;47.61;99034.52;1647641;86;21263;-76
2022/05/21 00:16:31;;;;;;;8.43;4.72;;;;;;;18.50;47.74;99032.05;1657291;85;21057;-75
2022/05/21 00:18:58;;;;;;;9.03;4.65;;;;;;;18.51;47.80;99039.08;1649683;87;20966;-75
2022/05/21 00:21:24;;;;;;;6.08;4.12;;;;;;;18.53;47.81;99048.30;1649805;87;21036;-75
2022/05/21 00:23:51;;;;;;;7.22;4.05;;;;;;;18.52;48.01;99040.69;1649471;86;21120;-73
2022/05/21 00:26:19;;;;;;;10.63;5.12;;;;;;;18.52;48.15;99035.23;1669983;85;21171;-72
2022/05/21 00:28:46;;;;;;;8.70;4.65;;;;;;;18.53;48.27;99028.71;1664030;86;21513;-73
2022/05/21 00:31:15;;;;;;;6.55;3.90;;;;;;;18.53;48.39;99031.44;1678713;85;20934;-72
2022/05/21 00:33:43;;;;;;;17.95;4.35;;;;;;;18.53;48.63;99027.88;1678669;85;21144;-73
2022/05/21 00:36:09;;;;;;;7.10;4.12;;;;;;;18.50;48.73;99026.60;1674906;85;21073;-74
2022/05/21 00:38:37;;;;;;;4.83;3.87;;;;;;;18.49;49.11;99024.99;1678627;85;21115;-72
2022/05/21 00:41:06;;;;;;;5.22;4.37;;;;;;;18.50;49.29;99021.71;1649461;86;21013;-75
2022/05/21 00:43:49;;;;;;;6.85;4.10;;;;;;;18.52;49.39;99023.54;1671979;85;21670;-72
2022/05/21 00:46:37;;;;;;;6.92;4.03;;;;;;;18.51;49.61;99021.38;1668055;85;21053;-73
2022/05/21 00:49:20;;;;;;;5.67;4.25;;;;;;;18.51;49.72;99026.05;1656197;86;21628;-74
2022/05/21 00:51:50;;;;;;;;;;;;;;;18.50;49.97;99035.33;1635673;87;22045;-83
2022/05/21 00:54:17;;;;;;;7.67;4.55;;;;;;;18.47;50.19;99024.50;1653218;86;20110;-77
2022/05/21 00:56:48;;;;;;;6.03;3.77;;;;;;;18.45;50.34;99027.31;1627872;86;21085;-73
2022/05/21 01:02:04;;;;;;;7.35;4.33;;;;;;;18.39;50.75;99028.57;1669811;85;21067;-70
2022/05/21 01:04:32;;;;;;;6.60;4.62;;;;;;;18.36;50.90;99023.77;1687654;84;21142;-70
2022/05/21 01:07:00;;;;;;;10.30;3.80;;;;;;;18.32;51.37;99018.72;1687497;85;21616;-70
2022/05/21 01:09:26;;;;;;;8.45;4.90;;;;;;;18.30;51.58;99019.83;1687494;85;20941;-69
2022/05/21 01:11:55;;;;;;;9.83;4.42;;;;;;;18.28;51.70;99021.25;1687158;84;20949;-78
2022/05/21 01:14:22;;;;;;;7.90;3.75;;;;;;;18.26;51.91;99025.67;1687380;85;21083;-76
2022/05/21 01:16:50;;;;;;;3.55;3.25;;;;;;;18.24;52.08;99031.17;1658727;86;21119;-76
2022/05/21 01:19:17;;;;;;;8.48;3.70;;;;;;;18.21;52.47;99034.53;1655976;86;21445;-75
2022/05/21 01:21:43;;;;;;;9.58;3.92;;;;;;;18.16;52.69;99034.13;1687723;84;21004;-76
2022/05/21 01:24:11;;;;;;;5.92;4.30;;;;;;;18.14;52.98;99028.19;1659376;85;21541;-76
2022/05/21 01:26:39;;;;;;;10.13;4.25;;;;;;;18.13;53.38;99021.12;1659343;86;21056;-76
2022/05/21 01:29:17;;;;;;;7.40;4.53;;;;;;;18.14;53.69;99026.82;1659772;86;21132;-78
2022/05/21 01:31:53;;;;;;;7.83;4.17;;;;;;;18.15;54.00;99018.10;1636641;86;21017;-76
2022/05/21 01:34:20;;;;;;;5.62;5.12;;;;;;;18.17;54.08;99021.32;1658477;86;21085;-75
2022/05/21 01:36:47;;;;;;;4.42;3.90;;;;;;;18.18;54.41;99021.54;1680293;85;21043;-76
2022/05/21 01:39:14;;;;;;;13.70;4.28;;;;;;;18.18;54.56;99023.70;1658667;85;21025;-76
2022/05/21 01:41:44;;;;;;;6.95;4.25;;;;;;;18.18;54.94;99020.98;1672732;85;22210;-76
2022/05/21 01:44:54;;;;;;;4.75;3.85;;;;;;;18.18;54.89;99023.70;1668250;85;22664;-76
2022/05/21 01:46:42;;;;;;;8.95;5.08;;;;;;;18.19;55.06;99012.27;1650022;85;21554;-75
2022/05/21 01:49:09;;;;;;;10.32;3.55;;;;;;;18.18;55.66;99018.27;1636837;87;21087;-76
2022/05/21 01:51:37;;;;;;;4.28;3.87;;;;;;;18.19;55.92;99019.88;1631709;87;21500;-76
2022/05/21 01:54:04;;;;;;;8.45;4.70;;;;;;;18.21;56.07;99019.02;1638060;87;21141;-75
2022/05/21 01:56:30;;;;;;;4.28;3.60;;;;;;;18.22;56.06;99020.59;1613897;87;21088;-75
2022/05/21 01:58:57;;;;;;;12.47;4.65;;;;;;;18.22;56.18;99026.63;1626274;86;21137;-81
2022/05/21 02:01:25;;;;;;;7.40;4.12;;;;;;;18.20;56.28;99020.13;1632772;87;21005;-77
2022/05/21 02:03:51;;;;;;;6.12;3.72;;;;;;;18.17;56.58;99011.23;1632262;86;21073;-78
2022/05/21 02:06:18;;;;;;;6.78;4.55;;;;;;;18.16;57.02;99010.98;1632933;87;21198;-81
2022/05/21 02:08:45;;;;;;;7.78;3.70;;;;;;;18.15;57.33;99009.38;1611032;89;21021;-82
2022/05/21 02:11:12;;;;;;;7.50;4.40;;;;;;;18.15;57.74;99005.30;1621560;86;20997;-81
2022/05/21 02:13:40;;;;;;;6.53;4.55;;;;;;;18.16;58.04;99002.02;1631057;86;21026;-83
2022/05/21 02:16:07;;;;;;;12.60;4.90;;;;;;;18.16;58.17;99001.46;1633340;87;21081;-84
2022/05/21 02:18:33;;;;;;;6.62;4.85;;;;;;;18.18;58.44;99007.94;1632339;86;21231;-87
2022/05/21 02:21:00;;;;;;;9.15;5.25;;;;;;;18.17;58.82;99003.08;1633678;87;21017;-89
2022/05/21 02:23:26;;;;;;;7.97;4.72;;;;;;;18.18;58.88;99002.48;1638287;87;21517;-83
2022/05/21 02:25:53;;;;;;;6.95;4.03;;;;;;;18.18;59.16;99001.93;1621032;87;21089;-81
2022/05/21 02:28:20;;;;;;;6.42;4.28;;;;;;;18.19;59.50;99004.91;1620752;88;21071;-78
2022/05/21 02:30:47;;;;;;;7.20;4.53;;;;;;;18.21;59.64;98997.79;1620962;88;21143;-76
2022/05/21 02:33:13;;;;;;;6.17;5.08;;;;;;;18.20;59.71;98992.91;1620743;88;21533;-75
2022/05/21 02:35:40;;;;;;;7.53;4.15;;;;;;;18.21;60.04;99008.13;1620997;88;20937;-80
2022/05/21 02:40:53;;;;;;;11.80;4.10;;;;;;;18.22;60.53;99000.77;1619652;88;21034;-82
2022/05/21 02:43:20;;;;;;;7.95;4.50;;;;;;;18.22;60.71;99004.27;1620101;88;21296;-77
2022/05/21 02:45:48;;;;;;;8.10;4.55;;;;;;;18.22;61.23;98998.04;1619599;88;21140;-78
2022/05/21 02:48:16;;;;;;;5.33;4.83;;;;;;;18.23;61.21;98995.53;1645271;84;21100;-78
2022/05/21 02:50:44;;;;;;;7.45;3.90;;;;;;;18.23;61.28;98997.70;1671733;84;21068;-79
2022/05/21 02:53:17;;;;;;;6.45;5.00;;;;;;;18.23;61.49;98999.06;1706282;83;21017;-76
2022/05/21 02:55:46;;;;;;;6.58;4.78;;;;;;;18.24;61.63;98993.87;1661288;83;21803;-75
2022/05/21 02:58:15;;;;;;;11.35;5.10;;;;;;;18.25;61.58;98983.23;1672419;84;21056;-77
2022/05/21 03:00:42;;;;;;;4.42;4.00;;;;;;;18.24;61.87;98988.42;1692206;83;21004;-76
2022/05/21 03:03:09;;;;;;;8.03;4.42;;;;;;;18.24;62.26;98995.23;1700193;83;21083;-76
2022/05/21 03:05:36;;;;;;;5.28;4.75;;;;;;;18.25;61.95;98984.59;1638934;86;21014;-76
2022/05/21 03:10:20;;;;;;;6.42;4.20;;;;;;;18.27;62.18;98985.64;1684517;85;21222;-77
2022/05/21 03:10:34;;;;;;;6.70;4.12;;;;;;;18.27;62.43;98987.00;1627672;87;21040;-76
2022/05/21 03:13:02;;;;;;;9.45;4.70;;;;;;;18.27;62.42;98979.61;1615356;87;20973;-77
2022/05/21 03:15:34;;;;;;;9.03;4.70;;;;;;;18.27;62.69;98984.28;1672150;85;20971;-75
2022/05/21 03:18:04;;;;;;;8.28;4.28;;;;;;;18.28;62.81;98970.89;1685464;85;21068;-77
2022/05/21 03:20:32;;;;;;;8.28;4.92;;;;;;;18.28;62.72;98970.33;1681136;85;21196;-77
2022/05/21 03:22:59;;;;;;;10.45;4.60;;;;;;;18.30;62.89;98970.83;1651672;85;21033;-77
2022/05/21 03:25:26;;;;;;;5.47;4.75;;;;;;;18.34;62.93;98972.34;1679474;85;20997;-77
2022/05/21 03:27:52;;;;;;;6.87;4.67;;;;;;;18.37;63.02;98970.93;1659201;84;20954;-75
2022/05/21 03:30:22;;;;;;;7.33;4.67;;;;;;;18.39;63.05;98961.86;1671507;85;21097;-76
2022/05/21 03:32:50;;;;;;;7.95;4.78;;;;;;;18.41;63.05;98971.89;1651582;85;21714;-75
2022/05/21 03:35:17;;;;;;;10.93;5.37;;;;;;;18.43;63.07;98964.98;1685105;85;20949;-76
2022/05/21 03:37:45;;;;;;;6.00;4.40;;;;;;;18.47;63.04;98976.03;1639561;86;21533;-75
2022/05/21 03:40:15;;;;;;;6.00;5.37;;;;;;;18.50;63.28;98989.03;1684592;85;21024;-75
2022/05/21 03:42:41;;;;;;;8.40;5.33;;;;;;;18.53;63.25;98967.96;1618579;87;21092;-75
2022/05/21 03:45:09;;;;;;;7.65;4.78;;;;;;;18.55;63.28;98973.38;1644837;86;21538;-76
2022/05/21 03:47:35;;;;;;;6.00;4.65;;;;;;;18.60;63.21;98969.69;1676227;85;21079;-75
2022/05/21 03:50:04;;;;;;;9.70;5.35;;;;;;;18.63;63.17;98969.05;1666890;86;21496;-77
2022/05/21 03:52:30;;;;;;;9.90;5.90;;;;;;;18.66;63.18;98977.92;1643568;86;21095;-75
2022/05/21 03:54:56;;;;;;;10.80;5.25;;;;;;;18.66;63.16;98963.74;1666859;86;21560;-74
2022/05/21 03:57:23;;;;;;;5.65;4.50;;;;;;;18.69;63.22;98954.95;1666771;85;21042;-76
2022/05/21 04:12:17;;;;;;;6.65;4.33;;;;;;;19.25;62.56;98941.39;1750341;79;23886;-75
2022/05/21 04:14:43;;;;;;;5.12;4.40;;;;;;;19.30;62.15;98935.20;1722208;83;20938;-81
2022/05/21 04:17:13;;;;;;;4.60;4.12;;;;;;;19.35;61.92;98939.13;1706319;84;21119;-79
2022/05/21 04:19:39;;;;;;;13.83;6.70;;;;;;;19.39;61.72;98940.63;1732157;81;20930;-80
2022/05/21 04:22:08;;;;;;;7.05;3.92;;;;;;;19.40;61.72;98938.14;1739532;81;20947;-79
2022/05/21 04:24:36;;;;;;;10.93;4.83;;;;;;;19.39;61.81;98935.97;1731871;82;20935;-79
2022/05/21 04:27:03;;;;;;;4.37;3.98;;;;;;;19.39;61.77;98932.44;1732397;82;21046;-78
2022/05/21 04:29:30;;;;;;;5.58;4.15;;;;;;;19.34;61.95;98936.15;1736089;82;20980;-83
2022/05/21 04:31:57;;;;;;;11.03;4.90;;;;;;;19.30;62.01;98939.30;1735670;82;21531;-76
2022/05/21 04:34:24;;;;;;;17.77;6.33;;;;;;;19.24;62.24;98954.22;1732522;81;21019;-78
2022/05/21 04:36:50;;;;;;;12.98;6.12;;;;;;;19.20;62.45;98942.92;1734255;81;21015;-78
2022/05/21 04:39:17;;;;;;;9.10;5.50;;;;;;;19.14;62.69;98945.82;1734639;82;21647;-75
2022/05/21 04:41:44;;;;;;;12.90;5.08;;;;;;;19.10;62.88;98947.59;1734173;82;21160;-79
2022/05/21 04:44:10;;;;;;;14.20;5.28;;;;;;;19.09;63.00;98937.01;1733771;82;21043;-78
2022/05/21 04:46:37;;;;;;;11.78;4.85;;;;;;;19.08;63.17;98952.59;1735831;82;21538;-80
2022/05/21 04:49:04;;;;;;;9.35;6.03;;;;;;;19.08;63.34;98949.06;1735520;82;20992;-81
2022/05/21 04:51:34;;;;;;;6.60;5.17;;;;;;;19.06;63.40;98946.64;1732793;81;21060;-81
2022/05/21 04:54:01;;;;;;;9.88;5.15;;;;;;;19.08;63.65;98949.86;1732027;82;21750;-74
2022/05/21 04:56:28;;;;;;;7.22;5.83;;;;;;;19.11;63.64;98949.77;1740747;81;21044;-79
2022/05/21 04:58:55;;;;;;;10.08;5.47;;;;;;;19.12;63.68;98932.29;1767193;81;21015;-78
2022/05/21 05:01:22;;;;;;;7.35;4.87;;;;;;;19.13;63.77;98932.53;1740607;81;20945;-76
2022/05/21 05:03:49;;;;;;;7.65;4.60;;;;;;;19.14;63.84;98934.11;1706371;82;21521;-77
2022/05/21 05:06:15;;;;;;;8.45;5.87;;;;;;;19.18;63.81;98932.92;1735699;82;21195;-77
2022/05/21 05:08:42;;;;;;;9.23;5.20;;;;;;;19.18;63.82;98924.74;1735616;82;20949;-76
2022/05/21 05:11:09;;;;;;;10.50;5.17;;;;;;;19.19;63.88;98927.13;1732521;82;21476;-76
2022/05/21 05:13:37;;;;;;;9.45;6.15;;;;;;;19.18;63.87;98935.86;1728090;82;21006;-75
2022/05/21 05:16:04;;;;;;;6.78;6.17;;;;;;;19.18;64.04;98923.38;1727890;83;21059;-75
2022/05/21 05:18:31;;;;;;;11.93;5.47;;;;;;;19.17;64.06;98926.67;1702731;83;22049;-77
2022/05/21 05:20:58;;;;;;;6.35;5.22;;;;;;;19.18;64.17;98929.64;1708490;83;21019;-75
2022/05/21 05:23:24;;;;;;;6.00;5.40;;;;;;;19.19;64.22;98933.94;1728018;83;20948;-77
2022/05/21 05:25:51;;;;;;;8.65;5.45;;;;;;;19.21;64.12;98914.55;1728362;83;21496;-77
2022/05/21 05:28:21;;;;;;;12.30;6.55;;;;;;;19.22;64.13;98909.34;1728393;83;21056;-77
2022/05/21 05:30:47;;;;;;;8.10;5.45;;;;;;;19.22;64.27;98901.16;1728199;82;21098;-76
2022/05/21 05:33:17;;;;;;;9.05;6.30;;;;;;;19.21;64.30;98899.55;1727828;82;20927;-74
2022/05/21 05:35:43;;;;;;;8.18;5.67;;;;;;;19.22;64.31;98901.95;1727665;82;20913;-75
2022/05/21 05:38:12;;;;;;;7.12;5.25;;;;;;;19.26;64.26;98898.02;1727827;82;21051;-73
2022/05/21 05:40:41;;;;;;;10.48;6.15;;;;;;;19.30;64.18;98895.66;1696499;84;21079;-76
2022/05/21 05:43:09;;;;;;;13.00;6.83;;;;;;;19.33;64.14;98884.69;1691866;82;22105;-74
2022/05/21 05:45:37;;;;;;;9.90;6.03;;;;;;;19.36;64.05;98891.64;1699102;83;21029;-77
2022/05/21 05:48:04;;;;;;;11.53;6.62;;;;;;;19.41;64.10;98884.64;1706421;83;21109;-75
2022/05/21 05:50:32;;;;;;;10.10;6.03;;;;;;;19.45;63.99;98876.62;1695631;83;21057;-82
2022/05/21 05:53:03;;;;;;;14.10;6.35;;;;;;;19.52;63.96;98884.52;1728348;83;21573;-80
2022/05/21 05:55:31;;;;;;;10.43;6.80;;;;;;;19.58;63.87;98886.50;1707296;82;21224;-80
2022/05/21 05:57:59;;;;;;;11.70;6.50;;;;;;;19.65;63.64;98875.89;1697783;84;20896;-81
2022/05/21 06:00:26;;;;;;;9.20;6.75;;;;;;;19.73;63.50;98891.41;1726952;83;20978;-82
2022/05/21 06:02:58;;;;;;;10.95;6.15;;;;;;;19.79;63.37;98879.74;1712164;83;21517;-82
2022/05/21 06:05:30;;;;;;;12.98;6.87;;;;;;;19.88;63.26;98884.02;1714018;83;21548;-83
2022/05/21 06:08:00;;;;;;;8.18;6.78;;;;;;;19.95;63.07;98878.82;1692679;84;21208;-84
2022/05/21 06:10:35;;;;;;;11.85;6.47;;;;;;;20.02;63.03;98878.31;1692585;84;21030;-83
2022/05/21 06:13:01;;;;;;;9.40;7.53;;;;;;;20.10;62.76;98880.73;1690863;84;21011;-81
2022/05/21 06:15:28;;;;;;;10.68;6.92;;;;;;;20.17;62.56;98870.09;1704144;83;20927;-83
2022/05/21 06:17:54;;;;;;;17.48;7.50;;;;;;;20.22;62.55;98869.89;1691670;84;21557;-85
2022/05/21 06:20:24;;;;;;;15.70;6.67;;;;;;;20.31;62.27;98877.48;1686360;83;21130;-88
2022/05/21 06:22:52;;;;;;;11.78;7.80;;;;;;;20.39;62.02;98872.50;1681595;85;21019;-85
2022/05/21 06:25:22;;;;;;;20.02;8.80;;;;;;;20.48;61.86;98871.09;1681585;85;21019;-85
2022/05/21 06:27:50;;;;;;;16.97;8.15;;;;;;;20.58;61.70;98870.65;1682420;85;21067;-82
2022/05/21 06:30:19;;;;;;;19.48;8.73;;;;;;;20.65;61.16;98868.98;1682469;85;21134;-79
2022/05/21 06:32:46;;;;;;;12.88;9.70;;;;;;;20.71;60.92;98873.68;1681841;85;21094;-79
2022/05/21 06:35:15;;;;;;;16.35;9.55;;;;;;;20.76;60.68;98877.01;1684707;83;21027;-84
2022/05/21 06:37:43;;;;;;;18.55;9.40;;;;;;;20.82;60.66;98870.73;1688061;84;21071;-82
2022/05/21 06:40:11;;;;;;;17.10;9.73;;;;;;;20.85;60.67;98866.78;1683403;85;20961;-83
2022/05/21 06:42:38;;;;;;;14.45;9.33;;;;;;;20.94;60.50;98865.88;1683238;85;21117;-83
2022/05/21 06:45:06;;;;;;;15.13;10.53;;;;;;;20.98;60.25;98863.50;1683384;85;21060;-75
2022/05/21 06:47:32;;;;;;;16.52;10.05;;;;;;;21.01;60.05;98865.55;1683591;84;21049;-76
2022/05/21 06:49:59;;;;;;;18.82;10.78;;;;;;;21.02;60.07;98867.72;1702412;83;21006;-75
2022/05/21 06:52:27;;;;;;;18.30;10.65;;;;;;;21.02;60.07;98867.72;1691269;84;21027;-75
2022/05/21 06:54:55;;;;;;;13.62;10.60;;;;;;;21.04;59.96;98859.98;1659674;85;21082;-84
2022/05/21 06:57:26;;;;;;;16.57;11.00;;;;;;;21.03;60.00;98855.65;1702094;84;21715;-83
2022/05/21 06:59:50;;;;;;;19.10;11.88;;;;;;;21.03;60.00;98855.65;1702766;84;21053;-84
2022/05/21 07:02:17;;;;;;;21.57;10.85;;;;;;;21.05;60.13;98856.12;1701450;84;21090;-82
2022/05/21 07:07:35;;;;;;;18.00;11.30;;;;;;;21.16;60.05;98849.09;1656083;86;21024;-83
2022/05/21 07:10:07;;;;;;;16.80;11.85;;;;;;;21.28;59.70;98848.55;1655740;86;21619;-84
2022/05/21 07:12:35;;;;;;;21.27;10.65;;;;;;;21.38;59.82;98845.93;1661104;84;21626;-79
2022/05/21 07:15:04;;;;;;;19.07;10.85;;;;;;;21.46;59.35;98851.85;1694424;83;20999;-78
2022/05/21 07:17:32;;;;;;;13.58;9.43;;;;;;;21.56;59.04;98858.80;1673876;84;21015;-78
2022/05/21 07:19:59;;;;;;;9.85;7.53;;;;;;;21.66;58.80;98848.20;1721440;82;21048;-83
2022/05/21 07:22:25;;;;;;;18.25;7.83;;;;;;;21.74;58.20;98845.10;1690083;83;21140;-75
2022/05/21 07:24:52;;;;;;;12.50;7.67;;;;;;;21.82;57.85;98841.46;1713305;83;20967;-81
2022/05/21 07:27:18;;;;;;;9.70;7.28;;;;;;;21.89;57.74;98849.87;1697737;83;20966;-82
2022/05/21 07:29:45;;;;;;;11.50;6.47;;;;;;;21.98;57.33;98844.30;1676417;85;21033;-83
2022/05/21 07:32:23;;;;;;;9.20;6.22;;;;;;;22.04;56.71;98838.24;1702875;83;21043;-84
2022/05/21 07:35:01;;;;;;;6.62;5.90;;;;;;;22.05;56.75;98839.84;1698975;83;21144;-83
2022/05/21 07:37:28;;;;;;;5.67;5.17;;;;;;;22.08;56.57;98832.30;1686602;84;21508;-77
2022/05/21 07:39:55;;;;;;;9.05;6.17;;;;;;;22.12;56.31;98826.34;1709485;83;21491;-81
2022/05/21 07:42:22;;;;;;;9.05;6.42;;;;;;;22.15;56.33;98831.15;1722759;83;21040;-79
2022/05/21 07:44:49;;;;;;;9.98;6.45;;;;;;;22.18;55.65;98822.23;1707208;83;21037;-77
2022/05/21 07:47:15;;;;;;;8.28;6.35;;;;;;;22.22;55.17;98818.21;1722824;83;21128;-79
2022/05/21 07:49:42;;;;;;;16.90;6.00;;;;;;;22.25;55.33;98805.77;1724453;83;21535;-76
2022/05/21 07:52:08;;;;;;;6.35;5.78;;;;;;;22.30;54.83;98802.19;1716155;83;21555;-75
2022/05/21 07:54:35;;;;;;;9.23;5.35;;;;;;;22.36;54.98;98796.69;1717192;83;21048;-75
2022/05/21 07:57:02;;;;;;;7.58;6.78;;;;;;;22.44;54.80;98790.28;1716593;83;21473;-76
2022/05/21 07:59:30;;;;;;;7.47;5.53;;;;;;;22.54;54.81;98800.71;1697356;83;21153;-76
2022/05/21 08:01:56;;;;;;;18.90;16.10;;;;;;;22.65;54.38;98787.87;1713811;82;21018;-75
2022/05/21 08:04:23;;;;;;;10.45;6.17;;;;;;;22.72;54.07;98790.27;1711430;82;21030;-75
2022/05/21 08:06:50;;;;;;;10.78;6.95;;;;;;;22.79;53.89;98786.90;1722715;83;21520;-77
2022/05/21 08:09:16;;;;;;;19.02;5.60;;;;;;;22.84;53.34;98779.21;1689764;82;21068;-77
2022/05/21 08:11:46;;;;;;;6.53;4.90;;;;;;;22.89;52.99;98780.89;1682039;83;20908;-76
2022/05/21 08:14:13;;;;;;;9.90;5.80;;;;;;;22.92;53.17;98771.41;1694967;82;21019;-76
2022/05/21 08:16:41;;;;;;;6.25;5.65;;;;;;;22.97;53.32;98768.97;1721323;82;20966;-75
2022/05/21 08:19:08;;;;;;;13.25;5.67;;;;;;;23.06;53.19;98764.67;1731881;81;21523;-74
2022/05/21 08:21:34;;;;;;;7.65;6.15;;;;;;;23.14;53.17;98760.95;1708772;82;21011;-74
2022/05/21 08:27:00;;;;;;;14.58;7.17;;;;;;;23.31;52.76;98766.84;1715361;82;21113;-79
2022/05/21 08:29:34;;;;;;;7.87;5.80;;;;;;;23.34;52.62;98766.15;1699632;84;20964;-78
2022/05/21 08:32:01;;;;;;;8.40;6.05;;;;;;;23.35;52.49;98758.14;1733840;82;21105;-79
2022/05/21 08:34:28;;;;;;;8.78;5.62;;;;;;;23.41;52.33;98760.80;1710295;82;21552;-78
2022/05/21 08:36:54;;;;;;;16.32;6.80;;;;;;;23.44;51.93;98759.31;1706392;83;21675;-75
2022/05/21 08:39:21;;;;;;;6.85;4.97;;;;;;;23.41;51.88;98762.18;1732494;81;21081;-76
2022/05/21 08:41:59;;;;;;;6.85;5.67;;;;;;;23.48;51.68;98765.70;1724975;82;21065;-77
2022/05/21 08:44:47;;;;;;;6.87;5.55;;;;;;;23.54;51.08;98765.66;1704080;84;21058;-75
2022/05/21 08:47:26;;;;;;;10.65;5.45;;;;;;;23.48;51.04;98767.66;1734952;82;21558;-74
2022/05/21 08:50:09;;;;;;;13.15;6.37;;;;;;;23.45;50.93;98765.83;1712024;82;21077;-75
2022/05/21 08:52:49;;;;;;;11.08;5.83;;;;;;;23.48;50.74;98765.70;1721489;83;21076;-75
2022/05/21 08:55:19;;;;;;;7.33;5.03;;;;;;;23.46;50.49;98764.68;1724125;82;20915;-75
2022/05/21 08:58:00;;;;;;;6.25;4.62;;;;;;;23.48;50.01;98761.59;1734003;81;20951;-74
2022/05/21 09:00:37;;;;;;;9.28;5.70;;;;;;;23.52;50.00;98765.78;1735146;82;20999;-74
2022/05/21 09:03:08;;;;;;;12.20;5.10;;;;;;;23.60;49.77;98764.20;1734959;82;21164;-75
2022/05/21 09:05:39;;;;;;;9.35;5.30;;;;;;;23.65;49.43;98753.52;1734814;82;20948;-74
2022/05/21 09:08:26;;;;;;;7.58;4.65;;;;;;;23.69;49.49;98756.55;1734650;81;21477;-75
2022/05/21 09:11:01;;;;;;;5.90;5.20;;;;;;;23.75;49.61;98757.07;1738299;82;21035;-74
2022/05/21 09:13:55;;;;;;;7.47;6.10;;;;;;;23.82;49.63;98757.23;1731879;81;21023;-73
2022/05/21 09:19:12;;;;;;;7.20;5.10;;;;;;;23.86;49.51;98757.53;1734443;81;20953;-74
2022/05/21 09:21:46;;;;;;;7.08;5.75;;;;;;;23.80;49.20;98752.67;1730386;82;21049;-73
2022/05/21 09:24:39;;;;;;;7.22;5.37;;;;;;;23.75;49.23;98751.58;1731249;82;21027;-72
2022/05/21 09:27:35;;;;;;;8.05;5.03;;;;;;;23.74;49.27;98744.52;1702125;82;21113;-75
2022/05/21 09:30:29;;;;;;;7.03;5.30;;;;;;;23.82;49.26;98738.02;1700267;82;21151;-76
2022/05/21 09:33:01;;;;;;;6.60;5.97;;;;;;;23.95;49.10;98739.45;1723812;82;20947;-77
2022/05/21 09:35:34;;;;;;;12.93;5.15;;;;;;;24.08;48.79;98738.14;1700675;82;21513;-75
2022/05/21 09:38:17;;;;;;;12.33;6.20;;;;;;;24.16;48.25;98737.18;1732795;82;21479;-72
2022/05/21 09:40:43;;;;;;;7.37;4.40;;;;;;;24.19;47.55;98734.27;1731263;81;21312;-73
2022/05/21 09:46:21;;;;;;;7.65;4.70;;;;;;;24.08;47.76;98731.85;1736574;82;20983;-74
2022/05/21 09:48:49;;;;;;;7.35;5.33;;;;;;;24.02;47.34;98756.09;1734863;82;21049;-72
2022/05/21 09:51:29;;;;;;;15.23;6.90;;;;;;;23.92;47.66;98755.88;1708841;83;20993;-71
2022/05/21 09:53:57;;;;;;;7.75;4.85;;;;;;;23.81;47.88;98738.59;1704244;82;21568;-72
2022/05/21 09:56:27;;;;;;;19.12;5.10;;;;;;;23.73;48.07;98746.47;1733588;82;21298;-71
2022/05/21 09:59:14;;;;;;;13.45;5.15;;;;;;;23.68;48.21;98738.52;1734761;82;20923;-76
2022/05/21 10:01:44;;;;;;;6.37;4.75;;;;;;;23.63;48.48;98737.42;1715645;81;21012;-74
2022/05/21 10:04:23;;;;;;;6.97;4.75;;;;;;;23.56;48.77;98746.06;1735145;82;21598;-75
2022/05/21 10:13:17;;;;;;;5.62;5.12;;;;;;;22.99;55.29;98756.48;1726799;81;21581;-78
2022/05/21 10:15:48;;;;;;;10.85;5.25;;;;;;;22.59;58.15;98742.90;1700355;83;21013;-79
2022/05/21 10:18:39;;;;;;;11.43;4.83;;;;;;;22.30;60.15;98723.34;1703719;84;22283;-77
2022/05/21 10:21:55;;;;;;;12.00;4.80;;;;;;;22.04;61.70;98703.26;1733990;82;21097;-79
2022/05/21 10:24:39;;;;;;;7.08;5.03;;;;;;;21.81;63.11;98711.20;1734391;82;21432;-73
2022/05/21 10:27:28;;;;;;;7.80;5.10;;;;;;;21.61;64.95;98729.95;1701998;84;21105;-73
2022/05/21 10:30:03;;;;;;;5.87;5.37;;;;;;;21.43;66.78;98732.17;1740742;82;21066;-78
2022/05/21 10:33:13;;;;;;;7.75;7.00;;;;;;;21.13;68.45;98743.09;1725581;82;20915;-74
2022/05/21 10:36:30;;;;;;;6.17;5.65;;;;;;;20.98;70.10;98732.28;1705200;84;21578;-74
2022/05/21 10:39:20;;;;;;;6.80;5.58;;;;;;;20.80;71.76;98724.88;1707394;82;21137;-72
2022/05/21 10:42:14;;;;;;;6.95;5.67;;;;;;;20.66;73.02;98707.20;1713990;82;21127;-84
2022/05/21 10:45:21;;;;;;;13.50;6.15;;;;;;;20.52;74.04;98701.27;1704842;84;20991;-75
2022/05/21 10:48:26;;;;;;;13.62;7.78;;;;;;;20.39;74.47;98697.70;1689140;83;20995;-85
2022/05/21 10:51:15;;;;;;;10.70;7.83;;;;;;;20.28;75.55;98701.42;1745467;82;21017;-74
2022/05/21 10:54:00;;;;;;;9.58;6.50;;;;;;;20.26;76.68;98710.51;1708866;83;21656;-74
2022/05/21 10:56:50;;;;;;;14.38;8.93;;;;;;;20.24;77.86;98704.58;1697559;83;21013;-72
2022/05/21 10:59:27;;;;;;;10.10;7.03;;;;;;;20.20;78.27;98699.56;1692727;83;21020;-72
2022/05/21 11:02:18;;;;;;;11.73;7.28;;;;;;;20.16;78.64;98691.82;1735370;82;20997;-73
2022/05/21 11:05:28;;;;;;;9.73;7.55;;;;;;;20.13;79.19;98675.33;1709838;83;21105;-80
2022/05/21 11:08:26;;;;;;;7.80;7.00;;;;;;;20.07;80.26;98697.14;1714918;83;21049;-80
2022/05/21 11:11:01;;;;;;;10.30;6.85;;;;;;;19.97;81.18;98680.62;1741005;82;21463;-82
2022/05/21 11:13:38;;;;;;;8.98;6.30;;;;;;;19.91;82.08;98671.03;1727444;83;20939;-88
2022/05/21 11:16:21;;;;;;;10.78;7.40;;;;;;;19.89;82.83;98662.41;1746955;82;21530;-85
2022/05/21 11:18:56;;;;;;;8.68;7.78;;;;;;;19.85;83.40;98660.92;1747741;82;21052;-87
2022/05/21 11:21:39;;;;;;;9.88;7.65;;;;;;;19.84;83.95;98656.59;1746277;82;21178;-87
2022/05/21 11:24:17;;;;;;;9.93;8.35;;;;;;;19.77;85.06;98656.32;1747732;82;21016;-86
2022/05/21 11:26:58;;;;;;;12.10;7.70;;;;;;;19.67;85.64;98656.73;1747784;82;21060;-90
2022/05/21 11:29:59;;;;;;;9.98;7.40;;;;;;;19.66;86.35;98640.16;1723157;82;21077;-87
2022/05/21 11:38:20;;;;;;;9.95;6.40;;;;;;;19.64;87.54;98621.95;1747870;82;21054;-91
2022/05/21 11:41:24;;;;;;;9.28;8.35;;;;;;;19.63;87.21;98634.55;1741136;82;20989;-89
2022/05/21 11:47:15;;;;;;;12.25;7.15;;;;;;;19.58;87.07;98631.47;1747989;82;21046;-90
2022/05/21 11:50:06;;;;;;;7.97;7.20;;;;;;;19.57;87.31;98611.56;1747769;82;21249;-90
2022/05/21 11:52:42;;;;;;;10.82;8.20;;;;;;;19.60;87.49;98601.94;1747590;82;21022;-91
2022/05/21 11:55:20;;;;;;;6.62;6.00;;;;;;;19.61;87.86;98584.44;1748004;82;20988;-90
2022/05/21 11:57:51;;;;;;;8.05;7.22;;;;;;;19.56;88.00;98579.99;1747729;82;21014;-90
2022/05/21 12:00:24;;;;;;;8.80;7.97;;;;;;;19.53;88.57;98580.65;1747686;82;21506;-90
2022/05/21 12:03:02;;;;;;;8.88;7.97;;;;;;;19.48;89.28;98586.31;1748128;82;21025;-87
2022/05/21 12:05:38;;;;;;;12.78;8.15;;;;;;;19.46;89.84;98599.50;1747780;82;21006;-92
2022/05/21 12:08:27;;;;;;;10.95;8.23;;;;;;;19.45;90.17;98606.08;1747924;82;20961;-90
2022/05/21 12:11:02;;;;;;;9.38;8.20;;;;;;;19.48;90.03;98601.31;1747623;82;21009;-89
2022/05/21 12:13:50;;;;;;;13.20;8.18;;;;;;;19.50;90.13;98587.34;1747986;82;21101;-90
2022/05/21 12:16:24;;;;;;;10.58;8.10;;;;;;;19.53;90.46;98581.21;1745515;82;21269;-89
2022/05/21 12:18:56;;;;;;;8.98;8.08;;;;;;;19.57;90.65;98565.20;1745918;82;21547;-91
2022/05/21 12:21:35;;;;;;;7.25;6.58;;;;;;;19.60;90.77;98552.84;1745624;82;20989;-88
2022/05/21 12:24:40;;;;;;;9.93;8.90;;;;;;;19.57;91.23;98536.56;1745940;82;20903;-87
2022/05/21 12:27:25;;;;;;;10.93;9.68;;;;;;;19.55;91.75;98532.03;1744973;82;21092;-89
2022/05/21 12:29:58;;;;;;;13.75;10.63;;;;;;;19.52;92.52;98524.50;1745950;82;21149;-89
2022/05/21 12:32:26;;;;;;;12.53;11.35;;;;;;;19.47;93.79;98528.03;1744305;82;21042;-85
2022/05/21 12:35:20;;;;;;;12.53;11.18;;;;;;;19.36;94.11;98528.18;1716157;83;21069;-90
2022/05/21 12:37:50;;;;;;;10.18;9.18;;;;;;;19.33;94.50;98516.00;1733128;82;21032;-81